Chunky, Mississippi
Current Conditions -  °F | °C
As of 1:58 PM on Saturday 25 Oct 2014 (Local Time) from KMEI Reporting Station
Clear Clear  
Wind Chill: 79°   Ceiling: Unl
Heat Index: 80°   Visibility: 10mi
Dew Point: 57°   Wind: 8mph
Humidity: 47%   Direction: 10°N
Pressure: 30.08"   Gusts: NA
Location:  32.33°N, 88.93°W
Report Text: KMEI 251858Z 01007KT 10SM CLR 26/14 A3008 RMK AO2 SLP185 T02610139
Loading
Personal Weather Stations






























Interactive Weather Map New forecast layout! Learn more

10-Day Weather Forecast

Advertisements
Track Severe Weather on mobile